Time;durP1;ratioP1;P1;durP2;ratioP2;P2;SDS_P1;SDS_P2;PMS_P1;PMS_P2;Temp;Humidity;BMP_temperature;BMP_pressure;BME280_temperature;BME280_humidity;BME280_pressure;Samples;Min_cycle;Max_cycle;Signal;HPM_P1;HPM_P2
2023/07/16 00:02:03;;;;;;;10.30;8.02;;;;;;;23.47;100.00;64432.41;5063801;28;20239;-80
2023/07/16 00:04:30;;;;;;;8.95;7.60;;;;;;;23.38;100.00;64423.53;5047276;28;20273;-80
2023/07/16 00:06:58;;;;;;;9.40;7.88;;;;;;;23.36;100.00;64420.91;5052378;28;20208;-81
2023/07/16 00:09:25;;;;;;;9.07;8.18;;;;;;;23.30;100.00;64415.13;5066609;28;20197;-79
2023/07/16 00:11:52;;;;;;;9.20;8.00;;;;;;;23.34;100.00;64421.41;5065291;28;20456;-81
2023/07/16 00:14:19;;;;;;;9.32;8.18;;;;;;;23.32;100.00;64422.44;5058957;28;20296;-82
2023/07/16 00:16:46;;;;;;;8.00;7.20;;;;;;;23.26;100.00;64413.00;5063550;27;20221;-81
2023/07/16 00:19:15;;;;;;;14.07;8.80;;;;;;;23.22;100.00;64406.75;5064653;28;20339;-81
2023/07/16 00:21:42;;;;;;;8.85;8.00;;;;;;;23.16;100.00;64400.47;5064006;27;20594;-80
2023/07/16 00:24:11;;;;;;;8.98;8.10;;;;;;;23.09;100.00;64392.63;5063678;28;20217;-81
2023/07/16 00:26:38;;;;;;;9.15;8.27;;;;;;;23.10;100.00;64394.19;5066945;28;20288;-81
2023/07/16 00:29:05;;;;;;;9.82;8.63;;;;;;;23.25;100.00;64409.88;5065914;28;20253;-79
2023/07/16 00:31:32;;;;;;;11.10;8.30;;;;;;;23.22;100.00;64411.94;5062485;27;20240;-79
2023/07/16 00:33:59;;;;;;;9.07;8.20;;;;;;;23.35;100.00;64425.56;5061699;28;20199;-80
2023/07/16 00:36:26;;;;;;;11.15;8.98;;;;;;;23.34;100.00;64419.31;5064477;27;20212;-80
2023/07/16 00:38:53;;;;;;;10.20;8.65;;;;;;;23.32;100.00;64419.84;5061152;28;20222;-80
2023/07/16 00:41:22;;;;;;;8.80;7.80;;;;;;;23.28;100.00;64415.13;5065902;27;20216;-83
2023/07/16 00:43:49;;;;;;;10.90;8.57;;;;;;;23.24;100.00;64414.06;5066363;28;20315;-81
2023/07/16 00:46:17;;;;;;;10.35;7.95;;;;;;;23.29;100.00;64411.50;5064040;28;20591;-80
2023/07/16 00:48:44;;;;;;;11.82;7.78;;;;;;;23.24;100.00;64405.72;5058277;28;20197;-80
2023/07/16 00:51:12;;;;;;;10.10;8.45;;;;;;;23.28;100.00;64418.25;5064616;28;20241;-81
2023/07/16 00:53:42;;;;;;;8.02;7.30;;;;;;;23.27;100.00;64411.97;5064901;28;20509;-79
2023/07/16 00:56:09;;;;;;;7.68;6.82;;;;;;;23.18;100.00;64407.75;5063262;28;20214;-81
2023/07/16 00:58:38;;;;;;;11.18;8.00;;;;;;;23.20;100.00;64404.66;5061751;28;20200;-80
2023/07/16 01:01:05;;;;;;;8.88;7.95;;;;;;;23.11;100.00;64397.84;5064857;28;20224;-80
2023/07/16 01:03:32;;;;;;;8.57;7.70;;;;;;;23.06;100.00;64389.47;5063572;27;20419;-81
2023/07/16 01:06:05;;;;;;;10.43;8.20;;;;;;;23.06;100.00;64390.00;5051732;28;20237;-79
2023/07/16 01:08:37;;;;;;;10.68;8.15;;;;;;;23.05;100.00;64388.97;5064554;28;20229;-80
2023/07/16 01:11:04;;;;;;;8.85;7.85;;;;;;;23.04;100.00;64390.50;5066346;28;20232;-81
2023/07/16 01:13:33;;;;;;;8.45;7.65;;;;;;;23.03;100.00;64386.88;5063082;28;20207;-83
2023/07/16 01:16:02;;;;;;;9.25;7.57;;;;;;;23.01;100.00;64384.25;5057891;28;20419;-80
2023/07/16 01:18:29;;;;;;;9.30;8.40;;;;;;;22.96;100.00;64376.97;5063461;28;20223;-81
2023/07/16 01:20:56;;;;;;;7.55;6.90;;;;;;;22.85;100.00;64368.56;5062872;27;20213;-80
2023/07/16 01:23:37;;;;;;;9.52;8.52;;;;;;;22.71;100.00;64351.34;5055583;28;20213;-79
2023/07/16 01:26:25;;;;;;;11.10;7.53;;;;;;;22.69;100.00;64354.44;5067136;28;20234;-80
2023/07/16 01:29:28;;;;;;;11.63;7.70;;;;;;;22.69;100.00;64357.03;5065221;28;20225;-81
2023/07/16 01:31:56;;;;;;;8.88;7.00;;;;;;;22.56;100.00;64340.31;5028704;28;20224;-79
2023/07/16 01:34:26;;;;;;;8.65;7.70;;;;;;;22.52;100.00;64339.25;5062952;28;20215;-81
2023/07/16 01:36:53;;;;;;;7.45;6.75;;;;;;;22.52;100.00;64334.03;5062933;28;20213;-81
2023/07/16 01:39:20;;;;;;;10.07;6.72;;;;;;;22.47;100.00;64328.81;5063987;28;20201;-82
2023/07/16 01:41:48;;;;;;;7.93;6.90;;;;;;;22.45;100.00;64328.81;5056967;28;20221;-80
2023/07/16 01:44:15;;;;;;;8.40;6.95;;;;;;;22.37;100.00;64318.38;5046420;28;20225;-80
2023/07/16 01:46:43;;;;;;;7.40;6.47;;;;;;;22.27;100.00;64310.00;5061119;28;20213;-79
2023/07/16 01:49:10;;;;;;;8.05;6.70;;;;;;;22.29;100.00;64312.59;5067296;28;20205;-80
2023/07/16 01:51:37;;;;;;;10.52;6.50;;;;;;;22.34;100.00;64317.84;5052023;28;20248;-81
2023/07/16 01:54:04;;;;;;;6.57;5.97;;;;;;;22.36;100.00;64312.13;5063724;28;20384;-80
2023/07/16 01:56:33;;;;;;;7.80;5.95;;;;;;;22.29;100.00;64309.50;5066143;28;20231;-80
2023/07/16 01:58:59;;;;;;;8.98;6.30;;;;;;;22.32;100.00;64315.75;5066271;27;20200;-81
2023/07/16 02:01:26;;;;;;;8.63;6.80;;;;;;;22.27;100.00;64310.50;5054996;28;20474;-82
2023/07/16 02:03:55;;;;;;;7.57;6.82;;;;;;;22.30;100.00;64310.53;5066029;28;20197;-80
2023/07/16 02:06:22;;;;;;;8.35;6.40;;;;;;;22.13;100.00;64290.69;5066734;28;20213;-81
2023/07/16 02:08:48;;;;;;;7.55;6.88;;;;;;;21.97;100.00;64276.56;5065745;28;20197;-79
2023/07/16 02:11:15;;;;;;;9.55;6.90;;;;;;;21.86;100.00;64267.13;5055601;28;20398;-79
2023/07/16 02:13:42;;;;;;;8.88;7.63;;;;;;;21.86;100.00;64267.66;5069769;28;20193;-79
2023/07/16 02:16:10;;;;;;;10.23;7.72;;;;;;;21.78;100.00;64256.69;5059911;28;20217;-81
2023/07/16 02:18:37;;;;;;;12.55;7.80;;;;;;;21.78;100.00;64254.63;5061891;27;20201;-82
2023/07/16 02:21:05;;;;;;;7.75;7.03;;;;;;;21.79;100.00;64257.75;5066371;28;20220;-81
2023/07/16 02:23:32;;;;;;;9.30;7.07;;;;;;;21.81;100.00;64261.91;5067515;27;20197;-80
2023/07/16 02:25:59;;;;;;;9.43;7.82;;;;;;;21.83;100.00;64259.34;5062467;27;20240;-81
2023/07/16 02:28:26;;;;;;;8.20;7.18;;;;;;;21.87;100.00;64263.00;5050057;27;20212;-81
2023/07/16 02:30:53;;;;;;;13.63;7.15;;;;;;;21.84;100.00;64260.38;5054107;27;20233;-79
2023/07/16 02:33:20;;;;;;;8.52;7.20;;;;;;;21.83;100.00;64258.81;5065205;28;20514;-81
2023/07/16 02:35:48;;;;;;;7.68;6.22;;;;;;;21.76;100.00;64257.72;5063621;28;20217;-82
2023/07/16 02:38:17;;;;;;;8.38;6.88;;;;;;;21.65;100.00;64243.63;5066536;28;20222;-80
2023/07/16 02:40:45;;;;;;;7.55;6.85;;;;;;;21.61;100.00;64241.50;5065518;28;20225;-82
2023/07/16 02:43:12;;;;;;;8.88;7.00;;;;;;;21.56;100.00;64231.09;5068000;27;20215;-80
2023/07/16 02:45:40;;;;;;;8.70;7.28;;;;;;;21.48;100.00;64225.34;5060099;28;20268;-80
2023/07/16 02:48:10;;;;;;;10.57;9.13;;;;;;;21.51;100.00;64228.47;5065260;28;20224;-81
2023/07/16 02:50:38;;;;;;;11.93;10.73;;;;;;;21.55;100.00;64230.06;5065425;28;20230;-80
2023/07/16 02:53:06;;;;;;;13.77;11.30;;;;;;;21.31;100.00;64210.69;5064873;28;20203;-80
2023/07/16 02:55:36;;;;;;;12.15;10.70;;;;;;;21.39;100.00;64215.94;5060564;28;20196;-80
2023/07/16 02:58:04;;;;;;;11.80;10.60;;;;;;;21.46;100.00;64223.25;5067458;28;20219;-80
2023/07/16 03:00:31;;;;;;;16.45;11.98;;;;;;;21.38;100.00;64215.41;5065704;28;20200;-80
2023/07/16 03:02:59;;;;;;;13.27;11.43;;;;;;;21.19;100.00;64192.97;5062146;27;20189;-80
2023/07/16 03:05:26;;;;;;;14.23;11.18;;;;;;;21.14;100.00;64190.34;5066040;28;20197;-79
2023/07/16 03:07:53;;;;;;;16.30;10.95;;;;;;;21.07;100.00;64187.72;5067170;28;20201;-79
2023/07/16 03:10:21;;;;;;;11.85;10.65;;;;;;;21.20;100.00;64194.03;5069365;28;20189;-79
2023/07/16 03:12:49;;;;;;;11.38;10.23;;;;;;;21.28;100.00;64209.63;5050597;28;20200;-81
2023/07/16 03:15:17;;;;;;;11.85;10.80;;;;;;;21.34;100.00;64213.31;5056553;28;20201;-81
2023/07/16 03:17:44;;;;;;;14.77;10.88;;;;;;;21.37;100.00;64214.38;5066935;27;20219;-81
2023/07/16 03:20:13;;;;;;;12.13;10.25;;;;;;;21.43;100.00;64214.94;5066753;28;20510;-79
2023/07/16 03:22:40;;;;;;;11.98;10.85;;;;;;;21.45;100.00;64224.81;5046616;28;20221;-80
2023/07/16 03:25:12;;;;;;;11.77;10.68;;;;;;;21.44;100.00;64219.09;5065870;28;20216;-80
2023/07/16 03:27:39;;;;;;;13.35;10.95;;;;;;;21.51;100.00;64228.47;5047920;28;20222;-79
2023/07/16 03:30:09;;;;;;;12.85;10.52;;;;;;;21.40;100.00;64220.09;5054335;28;20259;-80
2023/07/16 03:32:37;;;;;;;14.38;11.18;;;;;;;21.38;100.00;64220.09;5065069;27;20288;-80
2023/07/16 03:35:04;;;;;;;12.77;11.48;;;;;;;21.37;100.00;64208.66;5065715;27;20482;-80
2023/07/16 03:37:31;;;;;;;13.93;12.55;;;;;;;21.35;100.00;64209.16;5067348;27;20264;-81
2023/07/16 03:40:13;;;;;;;14.23;12.73;;;;;;;21.46;100.00;64223.25;5055411;28;20225;-79
2023/07/16 03:42:41;;;;;;;14.13;12.73;;;;;;;21.51;100.00;64228.47;5063734;28;20216;-81
2023/07/16 03:45:11;;;;;;;13.48;12.07;;;;;;;21.58;100.00;64233.72;5065297;28;20210;-81
2023/07/16 03:47:39;;;;;;;17.92;12.90;;;;;;;21.61;100.00;64238.91;5061618;27;20244;-79
2023/07/16 03:50:07;;;;;;;13.05;11.68;;;;;;;21.63;100.00;64241.53;5050214;28;20205;-80
2023/07/16 03:52:35;;;;;;;14.43;11.77;;;;;;;21.83;100.00;64261.94;5059667;28;20251;-80
2023/07/16 03:55:03;;;;;;;12.48;11.20;;;;;;;21.93;100.00;64271.84;5057687;27;20208;-80
2023/07/16 03:57:30;;;;;;;11.60;10.25;;;;;;;22.01;100.00;64280.22;5057731;28;20259;-80
2023/07/16 03:59:57;;;;;;;11.77;10.40;;;;;;;22.21;100.00;64296.44;5063257;28;20272;-79
2023/07/16 04:02:26;;;;;;;13.27;10.73;;;;;;;22.19;100.00;64296.97;5066031;28;20582;-81
2023/07/16 04:04:53;;;;;;;13.20;10.23;;;;;;;22.24;100.00;64301.66;5065774;28;20197;-79
2023/07/16 04:07:20;;;;;;;13.68;10.35;;;;;;;22.36;100.00;64317.34;5055169;28;20222;-80
2023/07/16 04:09:48;;;;;;;11.65;10.55;;;;;;;22.46;100.00;64329.84;5044915;28;20198;-81
2023/07/16 04:12:15;;;;;;;11.05;9.80;;;;;;;22.50;100.00;64336.63;5059785;28;20245;-79
2023/07/16 04:14:42;;;;;;;13.07;7.43;;;;;;;22.57;100.00;64341.88;5062911;28;20203;-81
2023/07/16 04:17:09;;;;;;;8.57;7.35;;;;;;;22.62;100.00;64344.50;5049874;28;20239;-80
2023/07/16 04:19:37;;;;;;;8.88;7.97;;;;;;;22.65;100.00;64347.13;5065107;28;20249;-81
2023/07/16 04:22:05;;;;;;;8.95;7.38;;;;;;;23.01;100.00;64381.66;5068801;28;20208;-81
2023/07/16 04:24:31;;;;;;;8.57;7.78;;;;;;;23.16;100.00;64402.56;5057094;28;20379;-80
2023/07/16 04:26:59;;;;;;;9.38;7.38;;;;;;;23.31;100.00;64418.78;5057564;28;20292;-81
2023/07/16 04:29:26;;;;;;;8.25;7.57;;;;;;;23.44;100.00;64424.59;5065307;28;20201;-80
2023/07/16 04:31:53;;;;;;;8.63;7.72;;;;;;;23.56;100.00;64444.94;5046264;28;20240;-80
2023/07/16 04:34:20;;;;;;;9.27;7.80;;;;;;;23.67;100.00;64456.47;5056572;28;20193;-81
2023/07/16 04:36:49;;;;;;;9.13;8.23;;;;;;;23.63;100.00;64449.66;5057414;27;20343;-80
2023/07/16 04:39:16;;;;;;;8.35;7.68;;;;;;;23.85;100.00;64477.34;5066160;28;20189;-80
2023/07/16 04:41:43;;;;;;;8.98;8.25;;;;;;;23.75;100.00;64464.28;5066914;27;20213;-82
2023/07/16 04:44:10;;;;;;;8.63;7.80;;;;;;;23.88;100.00;64475.31;5048839;27;20239;-81
2023/07/16 04:46:37;;;;;;;9.27;8.45;;;;;;;24.11;100.00;64501.47;5059925;28;20236;-81
2023/07/16 04:49:06;;;;;;;9.93;8.35;;;;;;;24.23;100.00;64511.44;5062542;28;20196;-82
2023/07/16 04:51:33;;;;;;;8.70;7.72;;;;;;;24.32;100.00;64515.66;5057020;27;20229;-81
2023/07/16 04:54:02;;;;;;;9.35;8.32;;;;;;;24.44;100.00;64533.94;5061723;28;20208;-81
2023/07/16 04:56:29;;;;;;;9.25;8.25;;;;;;;24.42;100.00;64531.34;5063452;28;20220;-81
2023/07/16 04:58:56;;;;;;;11.30;8.75;;;;;;;24.50;100.00;64545.44;5063625;27;20201;-81
2023/07/16 05:01:22;;;;;;;8.45;7.80;;;;;;;24.70;100.00;64560.66;5064302;28;20213;-78
2023/07/16 05:03:49;;;;;;;8.68;7.70;;;;;;;24.81;99.33;64572.72;5064090;27;20189;-79
2023/07/16 05:06:16;;;;;;;9.38;8.48;;;;;;;24.78;98.38;64569.56;5064428;28;20275;-81
2023/07/16 05:08:43;;;;;;;7.65;6.95;;;;;;;24.70;98.86;64558.59;5049765;28;20204;-81
2023/07/16 05:11:13;;;;;;;10.63;7.10;;;;;;;24.71;100.00;64564.31;5054632;28;20215;-82
2023/07/16 05:13:40;;;;;;;9.35;5.93;;;;;;;24.58;100.00;64548.59;5062879;27;20222;-80
2023/07/16 05:16:07;;;;;;;9.35;6.93;;;;;;;24.74;100.00;64564.84;5064071;28;20288;-81
2023/07/16 05:18:34;;;;;;;7.47;6.00;;;;;;;24.92;99.58;64583.69;5066491;27;20196;-79
2023/07/16 05:21:01;;;;;;;6.35;5.70;;;;;;;24.83;100.00;64577.41;5062367;27;20213;-80
2023/07/16 05:23:28;;;;;;;6.30;5.68;;;;;;;25.00;98.72;64594.69;5068826;27;20379;-81
2023/07/16 05:25:55;;;;;;;5.82;5.30;;;;;;;25.15;97.32;64605.19;5067948;28;20253;-81
2023/07/16 05:28:24;;;;;;;5.78;5.28;;;;;;;25.36;94.62;64629.28;5072005;28;20252;-80
2023/07/16 05:30:59;;;;;;;5.85;5.07;;;;;;;25.36;94.61;64629.81;5067134;28;20236;-81
2023/07/16 05:33:26;;;;;;;5.82;5.25;;;;;;;25.38;94.52;64626.72;5053741;28;20200;-80
2023/07/16 05:35:53;;;;;;;6.60;4.70;;;;;;;25.36;93.89;64629.28;5067618;27;20423;-80
2023/07/16 05:38:20;;;;;;;6.88;4.90;;;;;;;25.19;93.26;64614.59;5059031;28;20200;-81
2023/07/16 05:40:48;;;;;;;9.32;4.88;;;;;;;25.34;93.49;64629.78;5067077;28;20242;-80
2023/07/16 05:43:15;;;;;;;5.22;4.72;;;;;;;25.24;92.89;64617.22;5070128;28;20211;-81
2023/07/16 05:45:46;;;;;;;5.13;4.60;;;;;;;25.41;92.64;64640.28;5066762;28;20228;-81
2023/07/16 05:48:13;;;;;;;5.25;4.68;;;;;;;25.40;92.70;64634.03;5064982;27;20193;-80
2023/07/16 05:50:40;;;;;;;6.82;4.95;;;;;;;25.50;92.34;64646.56;5063025;28;20258;-81
2023/07/16 05:53:07;;;;;;;5.22;4.72;;;;;;;25.56;90.48;64650.78;5067695;27;20253;-80
2023/07/16 05:55:34;;;;;;;5.18;4.82;;;;;;;25.63;88.55;64657.56;5064377;28;20217;-81
2023/07/16 05:58:01;;;;;;;4.38;4.07;;;;;;;25.82;87.61;64678.03;5068012;28;20514;-80
2023/07/16 06:00:28;;;;;;;5.28;4.82;;;;;;;25.73;85.98;64673.81;5066400;28;20208;-82
2023/07/16 06:02:56;;;;;;;4.63;4.32;;;;;;;25.97;84.09;64693.75;5062722;28;20246;-81
2023/07/16 06:05:32;;;;;;;4.47;4.18;;;;;;;26.10;82.83;64707.41;5066876;27;20257;-79
2023/07/16 06:07:59;;;;;;;6.90;4.30;;;;;;;26.29;81.56;64726.25;5065387;28;20233;-80
2023/07/16 06:10:26;;;;;;;4.50;4.22;;;;;;;26.44;80.31;64742.50;5069408;28;20255;-81
2023/07/16 06:12:53;;;;;;;16.48;5.35;;;;;;;26.30;82.46;64727.81;5066397;28;20248;-79
2023/07/16 06:15:20;;;;;;;4.63;4.28;;;;;;;26.46;81.36;64747.22;5066530;27;20210;-79
2023/07/16 06:17:47;;;;;;;7.28;5.45;;;;;;;26.43;80.39;64738.84;5063967;28;20228;-78
2023/07/16 06:20:15;;;;;;;10.98;5.13;;;;;;;26.20;79.57;64717.88;5063740;27;20186;-81
2023/07/16 06:22:43;;;;;;;4.85;4.47;;;;;;;26.40;80.17;64743.56;5066011;28;20220;-80
2023/07/16 06:25:11;;;;;;;5.85;5.45;;;;;;;26.50;81.31;64748.28;5065593;28;20202;-79
2023/07/16 06:27:38;;;;;;;5.45;4.93;;;;;;;26.54;82.37;64750.38;5064045;28;20260;-79
2023/07/16 06:30:06;;;;;;;5.80;4.65;;;;;;;26.60;79.84;64758.75;5062262;27;20203;-79
2023/07/16 06:32:33;;;;;;;4.78;4.40;;;;;;;26.40;77.96;64738.34;5064979;27;20251;-79
2023/07/16 06:35:01;;;;;;;4.93;4.63;;;;;;;26.43;78.67;64738.31;5060001;28;20262;-79
2023/07/16 06:37:29;;;;;;;5.28;4.97;;;;;;;26.26;79.31;64723.13;5064523;28;20227;-79
2023/07/16 06:39:57;;;;;;;6.78;5.07;;;;;;;26.18;80.81;64718.38;5062901;28;20260;-79
2023/07/16 06:42:23;;;;;;;5.55;4.85;;;;;;;26.18;80.96;64718.38;5062687;28;20217;-80
2023/07/16 06:44:53;;;;;;;4.95;4.50;;;;;;;26.39;81.18;64741.97;5065506;27;20479;-81
2023/07/16 06:47:20;;;;;;;6.32;4.32;;;;;;;26.37;79.56;64737.28;5066317;28;20209;-79
2023/07/16 06:49:47;;;;;;;5.15;4.60;;;;;;;26.43;78.73;64741.47;5060242;27;20555;-79
2023/07/16 06:52:21;;;;;;;5.25;4.75;;;;;;;26.36;79.65;64733.59;5066300;27;20240;-78
2023/07/16 06:54:49;;;;;;;4.95;4.60;;;;;;;26.39;78.69;64734.16;5066809;28;20230;-78
2023/07/16 06:57:16;;;;;;;5.22;4.82;;;;;;;26.63;75.77;64761.94;5066189;28;20220;-80
2023/07/16 06:59:43;;;;;;;5.05;4.55;;;;;;;26.59;75.59;64755.66;5065714;28;20197;-79
2023/07/16 07:02:10;;;;;;;6.00;5.15;;;;;;;26.79;76.19;64776.63;5066859;27;20327;-79
2023/07/16 07:04:37;;;;;;;5.75;5.35;;;;;;;26.79;78.21;64781.31;5065666;28;20193;-78
2023/07/16 07:07:04;;;;;;;5.05;4.65;;;;;;;26.77;76.99;64781.84;5064393;28;20221;-78
2023/07/16 07:09:32;;;;;;;9.25;5.50;;;;;;;26.94;74.00;64794.97;5067242;28;20260;-78
2023/07/16 07:12:00;;;;;;;6.82;5.80;;;;;;;26.85;77.03;64782.91;5063345;28;20240;-78
2023/07/16 07:14:27;;;;;;;6.40;5.57;;;;;;;26.87;77.11;64784.50;5056619;27;20212;-79
2023/07/16 07:16:54;;;;;;;5.88;5.35;;;;;;;27.04;73.25;64804.94;5045479;28;20218;-78
2023/07/16 07:19:21;;;;;;;5.68;4.97;;;;;;;27.17;70.88;64818.56;5130880;27;20268;-78
2023/07/16 07:21:48;;;;;;;5.22;4.78;;;;;;;27.18;73.60;64824.88;5064970;27;20213;-79
2023/07/16 07:24:16;;;;;;;7.43;5.43;;;;;;;27.04;72.43;64802.84;5068383;28;20201;-79
2023/07/16 07:26:44;;;;;;;6.13;5.57;;;;;;;27.13;74.40;64811.75;5064174;28;20217;-78
2023/07/16 07:29:13;;;;;;;5.03;4.72;;;;;;;27.33;71.75;64834.84;5057985;28;20382;-78
2023/07/16 07:31:40;;;;;;;6.03;5.50;;;;;;;27.25;71.38;64830.09;5045899;28;20222;-79
2023/07/16 07:34:07;;;;;;;6.53;5.68;;;;;;;27.44;70.72;64846.91;5044957;28;20248;-78
2023/07/16 07:36:34;;;;;;;6.13;5.72;;;;;;;27.53;68.94;64858.44;5055107;28;20224;-78
2023/07/16 07:39:01;;;;;;;5.72;5.32;;;;;;;27.40;69.26;64840.13;5068056;28;20192;-78
2023/07/16 07:41:27;;;;;;;6.13;5.53;;;;;;;27.52;68.77;64855.31;5063743;27;20605;-79
2023/07/16 07:43:54;;;;;;;10.23;6.07;;;;;;;27.40;67.71;64840.13;5058518;27;20624;-78
2023/07/16 07:46:23;;;;;;;5.97;5.40;;;;;;;27.58;67.86;64859.00;5068030;28;20249;-78
2023/07/16 07:48:50;;;;;;;7.05;6.35;;;;;;;27.74;68.09;64875.25;5054610;28;20193;-78
2023/07/16 07:51:16;;;;;;;7.20;6.40;;;;;;;27.59;69.68;64867.38;5048411;28;20217;-78
2023/07/16 07:53:43;;;;;;;7.07;6.38;;;;;;;27.70;70.68;64873.69;5066013;28;20243;-77
2023/07/16 07:56:10;;;;;;;10.85;6.65;;;;;;;27.87;67.95;64894.66;5064308;28;20221;-80
2023/07/16 07:58:38;;;;;;;7.90;6.70;;;;;;;27.81;69.56;64885.22;5067428;28;20246;-80
2023/07/16 08:01:07;;;;;;;9.18;6.60;;;;;;;27.75;66.85;64879.44;5065214;27;20217;-82
2023/07/16 08:03:36;;;;;;;7.95;7.07;;;;;;;27.73;70.13;64882.59;5066569;28;20267;-79
2023/07/16 08:06:04;;;;;;;8.32;7.50;;;;;;;27.71;67.88;64875.28;5071971;27;20215;-82
2023/07/16 08:08:31;;;;;;;7.10;6.45;;;;;;;27.81;69.16;64882.59;5066697;28;20209;-79
2023/07/16 08:10:59;;;;;;;8.55;7.13;;;;;;;28.13;65.57;64916.22;5064565;27;20272;-84
2023/07/16 08:13:26;;;;;;;6.97;6.32;;;;;;;28.25;63.73;64931.97;5066197;27;20232;-80
2023/07/16 08:15:53;;;;;;;9.32;6.85;;;;;;;28.34;64.04;64941.41;5066331;28;20220;-78
2023/07/16 08:18:20;;;;;;;6.65;6.07;;;;;;;28.50;63.88;64957.69;5065732;27;20200;-78
2023/07/16 08:20:50;;;;;;;6.88;6.15;;;;;;;28.76;64.74;64987.13;5049693;28;20237;-83
2023/07/16 08:23:17;;;;;;;6.38;5.85;;;;;;;28.71;62.39;64979.78;5064145;28;20196;-82
2023/07/16 08:25:44;;;;;;;10.55;7.47;;;;;;;28.74;61.45;64982.38;5054332;27;20300;-82
2023/07/16 08:28:12;;;;;;;6.75;6.03;;;;;;;28.93;59.87;65000.25;5057603;28;20415;-79
2023/07/16 08:30:39;;;;;;;6.82;6.22;;;;;;;28.91;60.27;65000.78;5060504;28;20196;-80
2023/07/16 08:33:06;;;;;;;6.20;5.75;;;;;;;29.06;59.70;65021.25;5067332;27;20239;-78
2023/07/16 08:35:33;;;;;;;6.60;6.07;;;;;;;29.04;60.06;65009.19;5062143;27;20201;-79
2023/07/16 08:38:02;;;;;;;8.52;6.65;;;;;;;28.87;60.29;64999.19;5062665;28;20215;-79
2023/07/16 08:40:28;;;;;;;6.43;5.97;;;;;;;28.87;60.04;64999.19;5063029;28;20486;-79
2023/07/16 08:42:57;;;;;;;6.85;6.25;;;;;;;28.81;59.89;64989.75;5055587;28;20241;-79
2023/07/16 08:45:26;;;;;;;8.05;7.25;;;;;;;28.78;62.36;64983.97;5045915;28;20445;-78
2023/07/16 08:47:54;;;;;;;6.95;6.35;;;;;;;28.69;64.01;64980.28;5057453;27;20189;-79
2023/07/16 08:50:23;;;;;;;7.53;6.82;;;;;;;28.92;63.22;65006.56;5062823;28;20214;-80
2023/07/16 08:52:51;;;;;;;9.20;7.15;;;;;;;29.22;63.38;65030.22;5065093;28;20372;-79
2023/07/16 08:55:20;;;;;;;9.15;7.68;;;;;;;29.43;60.17;65058.06;5052307;28;20197;-78
2023/07/16 08:57:48;;;;;;;11.23;7.95;;;;;;;29.49;58.34;65059.09;5067279;28;20219;-78
2023/07/16 09:00:16;;;;;;;7.70;6.88;;;;;;;29.60;57.12;65070.13;5066473;28;20486;-80
2023/07/16 09:02:44;;;;;;;10.05;6.85;;;;;;;29.72;59.44;65087.50;5067136;28;20567;-79
2023/07/16 09:05:11;;;;;;;8.63;7.47;;;;;;;29.70;58.02;65077.53;5061577;28;20204;-79
2023/07/16 09:07:38;;;;;;;6.32;5.90;;;;;;;29.73;59.86;65091.19;5048104;28;20221;-78
2023/07/16 09:10:06;;;;;;;6.63;6.07;;;;;;;29.46;58.05;65058.03;5063288;28;20197;-80
2023/07/16 09:12:35;;;;;;;7.75;6.97;;;;;;;29.34;57.07;65045.44;5065046;28;20288;-77
2023/07/16 09:15:03;;;;;;;7.55;6.22;;;;;;;29.50;57.33;65065.41;5065331;28;20219;-80
2023/07/16 09:17:30;;;;;;;7.82;6.35;;;;;;;29.64;59.06;65076.97;5070120;27;20220;-78
2023/07/16 09:19:57;;;;;;;6.65;6.25;;;;;;;29.71;58.21;65081.72;5064308;27;20467;-79
2023/07/16 09:22:24;;;;;;;8.63;7.03;;;;;;;29.75;59.37;65093.28;5065433;28;20216;-79
2023/07/16 09:24:51;;;;;;;7.28;6.50;;;;;;;30.02;60.45;65124.28;5060416;27;20208;-78
2023/07/16 09:27:18;;;;;;;8.07;7.43;;;;;;;30.19;55.96;65137.44;5096609;27;20246;-81
2023/07/16 09:29:48;;;;;;;8.27;7.47;;;;;;;30.43;53.66;65160.06;5064788;28;20204;-79
2023/07/16 09:32:15;;;;;;;11.93;7.68;;;;;;;30.41;54.16;65157.44;5061678;27;20236;-79
2023/07/16 09:34:42;;;;;;;9.45;7.50;;;;;;;30.54;54.11;65169.00;5068990;28;20206;-77
2023/07/16 09:37:09;;;;;;;9.77;7.13;;;;;;;30.48;53.99;65167.94;5060870;28;20254;-80
2023/07/16 09:39:37;;;;;;;9.73;8.32;;;;;;;30.65;55.19;65185.28;5063620;27;20366;-79
2023/07/16 09:42:04;;;;;;;8.07;7.05;;;;;;;30.86;54.93;65212.16;5060891;28;20225;-80
2023/07/16 09:44:31;;;;;;;8.60;7.70;;;;;;;30.92;55.51;65213.72;5067301;28;20233;-79
2023/07/16 09:47:00;;;;;;;7.55;6.65;;;;;;;30.80;52.87;65198.47;5063511;28;20224;-77
2023/07/16 09:49:29;;;;;;;9.25;7.72;;;;;;;30.55;56.55;65175.31;5065351;28;20196;-79
2023/07/16 09:51:58;;;;;;;6.65;6.15;;;;;;;30.57;55.63;65174.25;5062294;28;20556;-80
2023/07/16 09:54:27;;;;;;;8.25;7.45;;;;;;;30.46;55.89;65160.06;5065026;28;20323;-79
2023/07/16 09:56:59;;;;;;;9.95;7.32;;;;;;;30.47;55.46;65166.91;5067449;27;20254;-81
2023/07/16 09:59:29;;;;;;;11.38;7.88;;;;;;;30.52;54.88;65174.25;5065621;28;20208;-78
2023/07/16 10:01:57;;;;;;;9.23;7.13;;;;;;;30.51;55.49;65165.84;5062660;28;20277;-80
2023/07/16 10:04:26;;;;;;;9.55;6.80;;;;;;;30.37;55.34;65153.22;5061813;27;20237;-78
2023/07/16 10:06:54;;;;;;;11.25;6.78;;;;;;;30.67;55.07;65184.25;5064367;27;20280;-78
2023/07/16 10:09:37;;;;;;;7.45;6.85;;;;;;;30.78;54.72;65196.34;5054489;28;20204;-78
2023/07/16 10:12:14;;;;;;;6.70;6.28;;;;;;;30.70;54.87;65187.94;5053022;28;20280;-79
2023/07/16 10:14:43;;;;;;;8.25;7.07;;;;;;;30.84;55.51;65204.78;5062298;28;20292;-79
2023/07/16 10:17:15;;;;;;;8.23;7.30;;;;;;;30.96;56.57;65220.03;5064723;28;20476;-79
2023/07/16 10:19:51;;;;;;;14.65;7.38;;;;;;;31.24;53.90;65250.03;5065412;27;20204;-80
2023/07/16 10:22:19;;;;;;;9.48;7.05;;;;;;;31.52;54.45;65274.25;5064882;28;20238;-78
2023/07/16 10:24:53;;;;;;;6.97;6.30;;;;;;;31.73;52.82;65290.53;5049385;28;20209;-79
2023/07/16 10:27:31;;;;;;;8.95;6.90;;;;;;;31.70;53.54;65293.19;5063472;28;20270;-78
2023/07/16 10:29:58;;;;;;;8.63;7.65;;;;;;;31.68;50.48;65293.69;5065562;28;20204;-80
2023/07/16 10:32:29;;;;;;;8.95;7.68;;;;;;;31.59;51.43;65286.34;5064678;28;20212;-79
2023/07/16 10:34:58;;;;;;;7.93;7.07;;;;;;;31.80;49.39;65305.81;5065195;28;20197;-78
2023/07/16 10:37:26;;;;;;;9.80;7.18;;;;;;;31.85;51.49;65307.91;5065171;28;20251;-79
2023/07/16 10:39:54;;;;;;;9.55;7.18;;;;;;;32.06;50.58;65324.78;5070403;28;20231;-81
2023/07/16 10:42:23;;;;;;;8.60;7.70;;;;;;;32.03;49.00;65332.16;5065122;27;20209;-80
2023/07/16 10:44:52;;;;;;;9.68;6.90;;;;;;;31.97;49.13;65325.84;5048185;28;20221;-77
2023/07/16 10:47:24;;;;;;;8.80;7.97;;;;;;;31.76;50.22;65301.59;5076384;27;20343;-79
2023/07/16 10:49:54;;;;;;;8.25;7.47;;;;;;;31.69;50.42;65289.50;5158792;27;20197;-77
2023/07/16 10:52:23;;;;;;;8.88;7.78;;;;;;;31.64;49.28;65283.69;5049426;28;20217;-77
2023/07/16 10:54:54;;;;;;;12.02;7.38;;;;;;;31.69;49.71;65286.31;5056304;27;20231;-79
2023/07/16 10:57:21;;;;;;;8.88;7.28;;;;;;;31.84;48.47;65310.00;5065649;27;20228;-78
2023/07/16 10:59:50;;;;;;;8.57;7.60;;;;;;;31.92;48.70;65313.19;5061990;27;20195;-77
2023/07/16 11:02:18;;;;;;;7.93;7.22;;;;;;;31.97;47.53;65317.94;5053027;27;20220;-79
2023/07/16 11:04:46;;;;;;;8.85;7.95;;;;;;;32.26;47.57;65353.72;5064025;28;20234;-79
2023/07/16 11:07:14;;;;;;;8.38;7.60;;;;;;;32.36;47.94;65367.44;5065133;28;20224;-79
2023/07/16 11:09:44;;;;;;;8.48;7.78;;;;;;;32.69;47.63;65401.66;5066718;28;20409;-79
2023/07/16 11:12:12;;;;;;;10.55;8.02;;;;;;;32.96;48.16;65421.69;5086203;27;20213;-79
2023/07/16 11:14:44;;;;;;;8.57;7.70;;;;;;;33.14;45.65;65443.28;5075845;27;20232;-79
2023/07/16 11:17:12;;;;;;;9.25;8.32;;;;;;;33.05;45.23;65431.69;5066059;28;20227;-78
2023/07/16 11:19:40;;;;;;;8.18;6.90;;;;;;;32.82;45.45;65406.91;5063288;28;20252;-79
2023/07/16 11:22:08;;;;;;;8.25;7.28;;;;;;;32.68;47.15;65395.34;5048438;28;20217;-79
2023/07/16 11:24:40;;;;;;;10.13;8.50;;;;;;;32.81;46.35;65411.66;5059745;28;20201;-80
2023/07/16 11:27:14;;;;;;;14.07;8.05;;;;;;;32.88;46.49;65418.53;5063897;28;20431;-79
2023/07/16 11:29:43;;;;;;;7.80;7.10;;;;;;;33.09;47.65;65438.00;5060905;27;20376;-80
2023/07/16 11:32:10;;;;;;;10.05;7.85;;;;;;;33.09;43.79;65435.38;5128921;27;20215;-78